createdAt,value
2022-09-23T00:01:15.946Z,99.90
2022-09-23T00:03:45.608Z,99.90
2022-09-23T00:06:14.475Z,99.90
2022-09-23T00:08:41.659Z,99.90
2022-09-23T00:11:19.541Z,99.90
2022-09-23T00:13:48.103Z,99.90
2022-09-23T00:16:17.508Z,99.90
2022-09-23T00:18:44.802Z,99.90
2022-09-23T00:21:14.282Z,99.90
2022-09-23T00:23:43.062Z,99.90
2022-09-23T00:26:12.259Z,99.90
2022-09-23T00:28:39.408Z,99.90
2022-09-23T00:31:14.357Z,99.90
2022-09-23T00:33:41.780Z,99.90
2022-09-23T00:36:15.564Z,99.90
2022-09-23T00:38:43.797Z,99.90
2022-09-23T00:41:12.198Z,99.90
2022-09-23T00:43:40.329Z,99.90
2022-09-23T00:46:09.401Z,99.90
2022-09-23T00:48:38.097Z,99.90
2022-09-23T00:51:05.321Z,99.90
2022-09-23T00:53:32.409Z,99.90
2022-09-23T00:56:02.994Z,99.90
2022-09-23T00:58:31.754Z,99.90
2022-09-23T01:01:05.034Z,99.90
2022-09-23T01:03:32.223Z,99.90
2022-09-23T01:05:59.408Z,99.90
2022-09-23T01:08:27.024Z,99.90
2022-09-23T01:11:01.261Z,99.90
2022-09-23T01:14:00.444Z,99.90
2022-09-23T01:16:58.505Z,99.90
2022-09-23T01:19:50.463Z,99.90
2022-09-23T01:22:34.675Z,99.90
2022-09-23T01:25:26.786Z,99.90
2022-09-23T01:28:15.415Z,99.90
2022-09-23T01:30:54.791Z,99.90
2022-09-23T01:33:36.883Z,99.90
2022-09-23T01:36:26.928Z,99.90
2022-09-23T01:39:01.380Z,99.90
2022-09-23T01:42:02.305Z,99.90
2022-09-23T01:44:34.720Z,99.90
2022-09-23T01:47:21.730Z,99.90
2022-09-23T01:50:02.129Z,99.90
2022-09-23T01:52:41.074Z,99.90
2022-09-23T01:55:16.601Z,99.90
2022-09-23T01:57:48.997Z,99.90
2022-09-23T02:00:17.336Z,99.90
2022-09-23T02:02:49.924Z,99.90
2022-09-23T02:05:24.651Z,99.90
2022-09-23T02:07:59.487Z,99.90
2022-09-23T02:10:28.631Z,99.90
2022-09-23T02:13:01.244Z,99.90
2022-09-23T02:15:35.398Z,99.90
2022-09-23T02:18:07.333Z,99.90
2022-09-23T02:20:37.063Z,99.90
2022-09-23T02:23:15.188Z,99.90
2022-09-23T02:25:54.323Z,99.90
2022-09-23T02:28:33.321Z,99.90
2022-09-23T02:31:20.032Z,99.90
2022-09-23T02:34:06.497Z,99.90
2022-09-23T02:36:38.265Z,99.90
2022-09-23T02:39:07.700Z,99.90
2022-09-23T02:41:37.392Z,99.90
2022-09-23T02:44:09.452Z,99.90
2022-09-23T02:46:37.451Z,99.90
2022-09-23T02:49:19.344Z,99.90
2022-09-23T02:51:47.159Z,99.90
2022-09-23T02:54:17.117Z,99.90
2022-09-23T02:56:44.445Z,99.90
2022-09-23T02:59:11.722Z,99.90
2022-09-23T03:01:46.749Z,99.90
2022-09-23T03:04:35.455Z,99.90
2022-09-23T03:07:21.456Z,99.90
2022-09-23T03:10:11.837Z,99.90
2022-09-23T03:13:00.219Z,99.90
2022-09-23T03:15:57.414Z,99.90
2022-09-23T03:18:37.407Z,99.90
2022-09-23T03:21:10.933Z,99.90
2022-09-23T03:23:39.931Z,99.90
2022-09-23T03:26:24.387Z,99.90
2022-09-23T03:28:51.916Z,99.90
2022-09-23T03:31:19.086Z,99.90
2022-09-23T03:33:51.372Z,99.90
2022-09-23T03:36:39.482Z,99.90
2022-09-23T03:39:08.998Z,99.90
2022-09-23T03:41:42.148Z,99.90
2022-09-23T03:44:09.814Z,99.90
2022-09-23T03:46:37.091Z,99.90
2022-09-23T03:49:11.310Z,99.90
2022-09-23T03:51:41.545Z,99.90
2022-09-23T03:54:11.791Z,99.90
2022-09-23T03:56:39.398Z,99.90
2022-09-23T03:59:06.533Z,99.90
2022-09-23T04:01:33.633Z,99.90
2022-09-23T04:04:00.923Z,99.90
2022-09-23T04:06:28.083Z,99.90
2022-09-23T04:08:55.322Z,99.90
2022-09-23T04:11:22.536Z,99.90
2022-09-23T04:13:49.593Z,99.90
2022-09-23T04:16:16.865Z,99.90
2022-09-23T04:18:44.116Z,99.90
2022-09-23T04:21:11.253Z,99.90
2022-09-23T04:23:38.743Z,99.90
2022-09-23T04:26:06.264Z,99.90
2022-09-23T04:28:33.651Z,99.90
2022-09-23T04:31:06.985Z,99.90
2022-09-23T04:33:34.508Z,99.90
2022-09-23T04:36:01.667Z,99.90
2022-09-23T04:38:28.853Z,99.90
2022-09-23T04:40:56.212Z,99.90
2022-09-23T04:43:23.613Z,99.90
2022-09-23T04:46:00.950Z,99.90
2022-09-23T04:48:28.633Z,99.90
2022-09-23T04:51:02.220Z,99.90
2022-09-23T04:53:29.598Z,99.90
2022-09-23T04:56:02.158Z,99.90
2022-09-23T04:58:29.417Z,99.90
2022-09-23T05:01:01.710Z,99.90
2022-09-23T05:03:36.024Z,99.90
2022-09-23T05:06:03.280Z,99.90
2022-09-23T05:08:30.508Z,99.90
2022-09-23T05:11:01.535Z,99.90
2022-09-23T05:13:28.720Z,99.90
2022-09-23T05:16:00.321Z,99.90
2022-09-23T05:18:36.963Z,99.90
2022-09-23T05:21:04.380Z,99.90
2022-09-23T05:23:31.465Z,99.90
2022-09-23T05:26:00.141Z,99.90
2022-09-23T05:28:30.105Z,99.90
2022-09-23T05:31:19.931Z,99.90
2022-09-23T05:33:56.292Z,99.90
2022-09-23T05:36:23.835Z,99.90
2022-09-23T05:38:51.445Z,99.90
2022-09-23T05:41:20.288Z,99.90
2022-09-23T05:43:47.590Z,99.90
2022-09-23T05:46:19.775Z,99.90
2022-09-23T05:48:47.681Z,99.90
2022-09-23T05:51:20.190Z,99.90
2022-09-23T05:53:48.029Z,99.90
2022-09-23T05:56:16.711Z,99.90
2022-09-23T05:58:43.912Z,99.90
2022-09-23T06:01:12.163Z,99.90
2022-09-23T06:03:39.670Z,99.90
2022-09-23T06:06:07.478Z,99.90
2022-09-23T06:08:34.873Z,99.90
2022-09-23T06:11:07.969Z,99.90
2022-09-23T06:13:38.347Z,99.90
2022-09-23T06:16:08.350Z,99.90
2022-09-23T06:18:36.088Z,99.90
2022-09-23T06:21:03.610Z,99.90
2022-09-23T06:23:31.253Z,99.90
2022-09-23T06:26:07.943Z,99.90
2022-09-23T06:28:38.221Z,99.90
2022-09-23T06:31:12.876Z,99.90
2022-09-23T06:33:41.081Z,99.90
2022-09-23T06:36:08.440Z,99.90
2022-09-23T06:38:36.749Z,99.90
2022-09-23T06:41:03.940Z,99.90
2022-09-23T06:43:31.525Z,99.90
2022-09-23T06:46:02.625Z,99.90
2022-09-23T06:48:29.998Z,99.90
2022-09-23T06:51:02.675Z,99.90
2022-09-23T06:53:32.604Z,99.90
2022-09-23T06:56:03.864Z,99.90
2022-09-23T06:58:31.969Z,99.90
2022-09-23T07:01:02.917Z,99.90
2022-09-23T07:03:31.049Z,99.90
2022-09-23T07:05:58.501Z,99.90
2022-09-23T07:08:27.248Z,99.90
2022-09-23T07:10:55.550Z,99.90
2022-09-23T07:13:22.892Z,99.90
2022-09-23T07:15:53.888Z,99.90
2022-09-23T07:18:23.962Z,99.90
2022-09-23T07:20:51.484Z,99.90
2022-09-23T07:23:18.731Z,99.90
2022-09-23T07:25:50.382Z,99.90
2022-09-23T07:28:18.163Z,99.90
2022-09-23T07:30:56.716Z,99.90
2022-09-23T07:33:32.060Z,99.90
2022-09-23T07:36:00.223Z,99.90
2022-09-23T07:38:30.433Z,99.90
2022-09-23T07:41:05.139Z,99.90
2022-09-23T07:43:32.589Z,99.90
2022-09-23T07:46:04.541Z,99.90
2022-09-23T07:48:34.374Z,99.90
2022-09-23T07:51:27.803Z,99.90
2022-09-23T07:53:56.863Z,99.90
2022-09-23T07:56:28.589Z,99.90
2022-09-23T07:59:04.014Z,99.90
2022-09-23T08:01:35.830Z,99.90
2022-09-23T08:04:08.060Z,99.90
2022-09-23T08:06:35.274Z,99.90
2022-09-23T08:09:02.448Z,99.90
2022-09-23T08:11:29.643Z,99.90
2022-09-23T08:13:57.514Z,99.90
2022-09-23T08:16:24.799Z,99.90
2022-09-23T08:18:52.270Z,99.90
2022-09-23T08:21:20.605Z,99.90
2022-09-23T08:23:47.963Z,99.90
2022-09-23T08:26:20.993Z,99.90
2022-09-23T08:28:50.356Z,99.90
2022-09-23T08:31:17.677Z,99.90
2022-09-23T08:33:45.131Z,99.90
2022-09-23T08:36:12.310Z,99.90
2022-09-23T08:38:39.490Z,99.90
2022-09-23T08:41:15.531Z,99.90
2022-09-23T08:43:51.758Z,99.90
2022-09-23T08:46:48.216Z,99.90
2022-09-23T08:49:20.456Z,99.90
2022-09-23T08:51:48.585Z,99.90
2022-09-23T08:54:16.792Z,99.90
2022-09-23T08:56:45.147Z,99.90
2022-09-23T08:59:32.197Z,99.90
2022-09-23T09:02:00.526Z,99.90
2022-09-23T09:04:38.585Z,99.90
2022-09-23T09:07:34.852Z,99.90
2022-09-23T09:10:15.557Z,99.90
2022-09-23T09:12:47.441Z,99.90
2022-09-23T09:15:16.518Z,99.90
2022-09-23T09:18:06.554Z,99.90
2022-09-23T09:20:40.411Z,99.90
2022-09-23T09:23:21.618Z,99.90
2022-09-23T09:25:52.861Z,99.90
2022-09-23T09:28:34.047Z,99.90
2022-09-23T09:31:02.591Z,99.90
2022-09-23T09:33:47.505Z,99.90
2022-09-23T09:36:47.885Z,99.90
2022-09-23T09:39:15.352Z,99.90
2022-09-23T09:41:45.452Z,99.90
2022-09-23T09:44:48.152Z,99.90
2022-09-23T09:47:46.831Z,99.90
2022-09-23T09:50:20.762Z,99.90
2022-09-23T09:52:56.240Z,99.90
2022-09-23T09:55:27.516Z,99.90
2022-09-23T09:58:05.859Z,99.90
2022-09-23T10:00:39.165Z,99.90
2022-09-23T10:03:21.449Z,99.90
2022-09-23T10:05:50.227Z,99.90
2022-09-23T10:08:20.155Z,99.90
2022-09-23T10:10:59.515Z,99.90
2022-09-23T10:13:27.372Z,99.90
2022-09-23T10:15:55.103Z,99.90
2022-09-23T10:18:32.157Z,99.60
2022-09-23T10:21:14.866Z,98.10
2022-09-23T10:23:55.630Z,97.80
2022-09-23T10:26:34.013Z,96.70
2022-09-23T10:29:19.710Z,98.70
2022-09-23T10:31:46.865Z,98.70
2022-09-23T10:34:29.307Z,94.80
2022-09-23T10:37:02.255Z,96.30
2022-09-23T10:39:47.833Z,96.20
2022-09-23T10:42:44.842Z,97.20
2022-09-23T10:45:39.703Z,96.90
2022-09-23T10:48:12.752Z,95.90
2022-09-23T10:50:49.163Z,97.70
2022-09-23T10:53:41.131Z,97.90
2022-09-23T10:56:29.161Z,96.40
2022-09-23T10:59:18.831Z,95.20
2022-09-23T11:01:59.267Z,95.60
2022-09-23T11:04:32.490Z,95.40
2022-09-23T11:07:07.485Z,93.70
2022-09-23T11:09:55.865Z,93.80
2022-09-23T11:12:25.973Z,93.50
2022-09-23T11:15:01.904Z,94.00
2022-09-23T11:17:29.119Z,93.10
2022-09-23T11:20:09.934Z,94.20
2022-09-23T11:22:55.322Z,92.90
2022-09-23T11:25:43.696Z,92.70
2022-09-23T11:28:20.632Z,92.70
2022-09-23T11:30:47.746Z,91.70
2022-09-23T11:33:39.614Z,91.20
2022-09-23T11:36:37.420Z,90.40
2022-09-23T11:39:25.907Z,91.60
2022-09-23T11:41:54.431Z,92.60
2022-09-23T11:44:26.956Z,91.90
2022-09-23T11:47:28.415Z,91.10
2022-09-23T11:50:03.342Z,90.40
2022-09-23T11:52:34.381Z,90.60
2022-09-23T11:55:20.503Z,87.40
2022-09-23T11:57:53.737Z,83.70
2022-09-23T12:00:46.609Z,86.70
2022-09-23T12:03:44.473Z,89.00
2022-09-23T12:06:18.803Z,87.50
2022-09-23T12:08:46.164Z,89.50
2022-09-23T12:11:25.023Z,88.90
2022-09-23T12:14:11.062Z,88.50
2022-09-23T12:17:07.303Z,87.30
2022-09-23T12:19:58.127Z,83.90
2022-09-23T12:22:37.465Z,81.30
2022-09-23T12:25:22.706Z,84.80
2022-09-23T12:27:51.510Z,85.50
2022-09-23T12:30:20.888Z,87.40
2022-09-23T12:32:48.163Z,88.20
2022-09-23T12:35:25.409Z,87.80
2022-09-23T12:37:52.574Z,86.00
2022-09-23T12:40:35.750Z,89.60
2022-09-23T12:43:03.035Z,86.00
2022-09-23T12:45:34.055Z,83.60
2022-09-23T12:48:05.728Z,82.60
2022-09-23T12:50:58.586Z,85.30
2022-09-23T12:53:35.086Z,83.00
2022-09-23T12:56:14.989Z,82.90
2022-09-23T12:58:45.271Z,84.80
2022-09-23T13:01:15.459Z,82.20
2022-09-23T13:04:13.956Z,79.80
2022-09-23T13:06:48.026Z,80.50
2022-09-23T13:09:21.730Z,83.60
2022-09-23T13:11:48.749Z,85.30
2022-09-23T13:14:26.758Z,83.00
2022-09-23T13:16:54.697Z,81.60
2022-09-23T13:19:27.918Z,82.40
2022-09-23T13:21:55.091Z,81.10
2022-09-23T13:24:25.191Z,80.60
2022-09-23T13:27:07.029Z,80.00
2022-09-23T13:29:38.083Z,79.90
2022-09-23T13:32:09.352Z,77.20
2022-09-23T13:34:36.907Z,80.00
2022-09-23T13:37:40.223Z,82.00
2022-09-23T13:40:10.057Z,80.30
2022-09-23T13:42:39.393Z,80.40
2022-09-23T13:45:07.106Z,79.10
2022-09-23T13:47:34.579Z,78.10
2022-09-23T13:50:02.425Z,78.20
2022-09-23T13:52:31.560Z,77.50
2022-09-23T13:54:58.683Z,73.80
2022-09-23T13:57:26.753Z,76.70
2022-09-23T13:59:53.945Z,76.30
2022-09-23T14:02:26.608Z,72.00
2022-09-23T14:04:58.757Z,71.80
2022-09-23T14:07:26.047Z,74.70
2022-09-23T14:09:54.731Z,72.90
2022-09-23T14:12:24.576Z,73.60
2022-09-23T14:14:51.953Z,74.10
2022-09-23T14:17:20.881Z,71.90
2022-09-23T14:19:48.157Z,74.00
2022-09-23T14:22:26.015Z,76.60
2022-09-23T14:24:53.341Z,78.70
2022-09-23T14:27:29.270Z,77.90
2022-09-23T14:29:56.774Z,77.50
2022-09-23T14:32:26.663Z,77.10
2022-09-23T14:35:06.783Z,80.20
2022-09-23T14:37:52.324Z,80.10
2022-09-23T14:40:21.279Z,80.20
2022-09-23T14:43:12.886Z,80.80
2022-09-23T14:45:40.790Z,79.40
2022-09-23T14:48:10.730Z,79.10
2022-09-23T14:50:39.978Z,76.90
2022-09-23T14:53:29.474Z,75.70
2022-09-23T14:56:07.783Z,81.40
2022-09-23T14:58:54.588Z,83.10
2022-09-23T15:01:34.896Z,83.60
2022-09-23T15:04:12.322Z,82.50
2022-09-23T15:06:40.913Z,82.50
2022-09-23T15:09:09.430Z,83.90
2022-09-23T15:11:36.967Z,83.90
2022-09-23T15:14:33.236Z,84.80
2022-09-23T15:16:52.164Z,84.90
2022-09-23T15:19:20.030Z,84.40
2022-09-23T15:21:47.426Z,85.50
2022-09-23T15:24:45.975Z,87.00
2022-09-23T15:27:29.537Z,88.10
2022-09-23T15:30:15.149Z,89.90
2022-09-23T15:32:45.765Z,89.60
2022-09-23T15:35:18.944Z,89.30
2022-09-23T15:37:47.323Z,91.10
2022-09-23T15:40:27.006Z,90.40
2022-09-23T15:42:58.760Z,91.60
2022-09-23T15:45:34.238Z,93.30
2022-09-23T15:48:08.217Z,93.50
2022-09-23T15:50:36.538Z,94.20
2022-09-23T15:53:04.318Z,95.60
2022-09-23T15:55:32.166Z,97.20
2022-09-23T15:57:59.842Z,99.90
2022-09-23T16:00:27.104Z,99.90
2022-09-23T16:02:54.274Z,99.90
2022-09-23T16:05:22.328Z,99.90
2022-09-23T16:07:52.468Z,99.90
2022-09-23T16:10:21.269Z,99.90
2022-09-23T16:12:48.454Z,99.90
2022-09-23T16:15:17.929Z,99.90
2022-09-23T16:17:45.105Z,99.90
2022-09-23T16:20:14.104Z,99.90
2022-09-23T16:22:41.340Z,99.90
2022-09-23T16:25:11.715Z,99.90
2022-09-23T16:27:40.457Z,99.90
2022-09-23T16:30:08.418Z,99.90
2022-09-23T16:32:35.857Z,99.90
2022-09-23T16:35:03.039Z,99.90
2022-09-23T16:37:30.497Z,99.90
2022-09-23T16:39:57.771Z,99.90
2022-09-23T16:42:24.817Z,99.90
2022-09-23T16:44:52.035Z,99.90
2022-09-23T16:47:19.237Z,99.90
2022-09-23T16:49:46.497Z,99.90
2022-09-23T16:52:13.778Z,99.90
2022-09-23T16:54:42.350Z,99.90
2022-09-23T16:57:09.935Z,99.90
2022-09-23T16:59:55.634Z,99.90
2022-09-23T17:02:41.494Z,99.90
2022-09-23T17:05:09.000Z,99.90
2022-09-23T17:07:35.975Z,99.90
2022-09-23T17:10:03.211Z,99.90
2022-09-23T17:12:32.788Z,99.90
2022-09-23T17:15:00.733Z,99.90
2022-09-23T17:17:29.340Z,99.90
2022-09-23T17:19:56.477Z,99.90
2022-09-23T17:22:23.731Z,99.90
2022-09-23T17:24:51.032Z,99.90
2022-09-23T17:27:18.237Z,99.90
2022-09-23T17:29:45.492Z,99.90
2022-09-23T17:32:12.697Z,99.90
2022-09-23T17:34:39.685Z,99.90
2022-09-23T17:37:06.904Z,99.90
2022-09-23T17:39:34.199Z,99.90
2022-09-23T17:42:01.935Z,99.90
2022-09-23T17:44:29.109Z,99.90
2022-09-23T17:46:56.650Z,99.90
2022-09-23T17:49:24.621Z,99.90
2022-09-23T17:51:51.846Z,99.90
2022-09-23T17:54:18.959Z,99.90
2022-09-23T17:56:46.266Z,99.90
2022-09-23T17:59:13.528Z,99.90
2022-09-23T18:01:40.867Z,99.90
2022-09-23T18:04:08.203Z,99.90
2022-09-23T18:06:36.066Z,99.90
2022-09-23T18:09:04.937Z,99.90
2022-09-23T18:11:39.170Z,99.90
2022-09-23T18:14:18.978Z,99.90
2022-09-23T18:16:50.379Z,99.90
2022-09-23T18:19:19.003Z,99.90
2022-09-23T18:21:48.526Z,99.90
2022-09-23T18:24:32.743Z,99.90
2022-09-23T18:27:00.980Z,99.90
2022-09-23T18:29:28.825Z,99.90
2022-09-23T18:31:56.218Z,99.90
2022-09-23T18:34:23.757Z,99.90
2022-09-23T18:36:51.084Z,99.90
2022-09-23T18:39:18.306Z,99.90
2022-09-23T18:41:45.582Z,99.90
2022-09-23T18:44:12.789Z,99.90
2022-09-23T18:46:40.011Z,99.90
2022-09-23T18:49:26.003Z,99.90
2022-09-23T18:51:57.369Z,99.90
2022-09-23T18:54:26.420Z,99.90
2022-09-23T18:56:53.670Z,99.90
2022-09-23T18:59:26.427Z,99.90
2022-09-23T19:01:56.772Z,99.90
2022-09-23T19:04:24.792Z,99.90
2022-09-23T19:06:52.160Z,99.90
2022-09-23T19:09:19.751Z,99.90
2022-09-23T19:11:47.001Z,99.90
2022-09-23T19:14:14.583Z,99.90
2022-09-23T19:16:41.991Z,99.90
2022-09-23T19:19:09.581Z,99.90
2022-09-23T19:21:37.101Z,99.90
2022-09-23T19:24:05.936Z,99.90
2022-09-23T19:26:35.066Z,99.90
2022-09-23T19:29:03.336Z,99.90
2022-09-23T19:31:35.175Z,99.90
2022-09-23T19:34:10.811Z,99.90
2022-09-23T19:36:39.123Z,99.90
2022-09-23T19:39:09.856Z,99.90
2022-09-23T19:41:36.955Z,99.90
2022-09-23T19:44:04.215Z,99.90
2022-09-23T19:46:32.742Z,99.90
2022-09-23T19:49:00.505Z,99.90
2022-09-23T19:51:28.379Z,99.90
2022-09-23T19:53:55.476Z,99.90
2022-09-23T19:56:22.759Z,99.90
2022-09-23T19:58:54.430Z,99.90
2022-09-23T20:01:28.690Z,99.90
2022-09-23T20:03:56.092Z,99.90
2022-09-23T20:06:23.657Z,99.90
2022-09-23T20:08:50.997Z,99.90
2022-09-23T20:11:26.195Z,99.90
2022-09-23T20:14:00.821Z,99.90
2022-09-23T20:16:29.447Z,99.90
2022-09-23T20:18:56.767Z,99.90
2022-09-23T20:21:23.932Z,99.90
2022-09-23T20:23:51.205Z,99.90
2022-09-23T20:26:50.640Z,99.90
2022-09-23T20:29:17.711Z,99.90
2022-09-23T20:31:45.280Z,99.90
2022-09-23T20:34:12.421Z,99.90
2022-09-23T20:36:41.944Z,99.90
2022-09-23T20:39:09.851Z,99.90
2022-09-23T20:41:38.132Z,99.90
2022-09-23T20:44:07.689Z,99.90
2022-09-23T20:46:36.007Z,99.90
2022-09-23T20:49:03.990Z,99.90
2022-09-23T20:51:33.563Z,99.90
2022-09-23T20:54:00.870Z,99.90
2022-09-23T20:56:28.759Z,99.90
2022-09-23T20:59:02.772Z,99.90
2022-09-23T21:01:31.993Z,99.90
2022-09-23T21:03:59.027Z,99.90
2022-09-23T21:06:26.410Z,99.90
2022-09-23T21:08:54.728Z,99.90
2022-09-23T21:11:22.105Z,99.90
2022-09-23T21:13:52.478Z,99.90
2022-09-23T21:16:22.476Z,99.90
2022-09-23T21:18:50.600Z,99.90
2022-09-23T21:21:19.860Z,99.90
2022-09-23T21:23:47.230Z,99.90
2022-09-23T21:26:19.413Z,99.90
2022-09-23T21:28:54.383Z,99.90
2022-09-23T21:31:23.686Z,99.90
2022-09-23T21:34:01.769Z,99.90
2022-09-23T21:36:30.062Z,99.90
2022-09-23T21:38:58.139Z,99.90
2022-09-23T21:41:25.484Z,99.90
2022-09-23T21:43:52.527Z,99.90
2022-09-23T21:46:20.597Z,99.90
2022-09-23T21:48:50.072Z,99.90
2022-09-23T21:51:19.385Z,99.90
2022-09-23T21:53:46.614Z,99.90
2022-09-23T21:56:21.419Z,99.90
2022-09-23T21:58:49.043Z,99.90
2022-09-23T22:01:24.023Z,99.90
2022-09-23T22:03:52.552Z,99.90
2022-09-23T22:06:24.287Z,99.90
2022-09-23T22:08:53.453Z,99.90
2022-09-23T22:11:40.598Z,99.90
2022-09-23T22:14:09.719Z,99.90
2022-09-23T22:16:37.176Z,99.90
2022-09-23T22:19:07.719Z,99.90
2022-09-23T22:21:36.634Z,99.90
2022-09-23T22:24:04.003Z,99.90
2022-09-23T22:26:35.903Z,99.90
2022-09-23T22:29:21.554Z,99.90
2022-09-23T22:32:08.084Z,99.90
2022-09-23T22:34:49.530Z,99.90
2022-09-23T22:37:23.854Z,99.90
2022-09-23T22:39:50.795Z,99.90
2022-09-23T22:42:18.185Z,99.90
2022-09-23T22:44:46.259Z,99.90
2022-09-23T22:47:13.436Z,99.90
2022-09-23T22:49:40.920Z,99.90
2022-09-23T22:52:08.542Z,99.90
2022-09-23T22:54:35.727Z,99.90
2022-09-23T22:57:07.184Z,99.90
2022-09-23T22:59:34.522Z,99.90
2022-09-23T23:02:03.083Z,99.90
2022-09-23T23:04:30.352Z,99.90
2022-09-23T23:06:58.697Z,99.90
2022-09-23T23:09:25.792Z,99.90
2022-09-23T23:11:53.356Z,99.90
2022-09-23T23:14:20.556Z,99.90
2022-09-23T23:16:47.796Z,99.90
2022-09-23T23:19:17.354Z,99.90
2022-09-23T23:21:44.945Z,99.90
2022-09-23T23:24:17.210Z,99.90
2022-09-23T23:26:44.555Z,99.90
2022-09-23T23:29:12.776Z,99.90
2022-09-23T23:31:40.020Z,99.90
2022-09-23T23:34:10.550Z,99.90
2022-09-23T23:36:37.902Z,99.90
2022-09-23T23:39:05.287Z,99.90
2022-09-23T23:41:32.375Z,99.90
2022-09-23T23:44:00.208Z,99.90
2022-09-23T23:46:30.216Z,99.90
2022-09-23T23:48:57.725Z,99.90
2022-09-23T23:51:28.168Z,99.90
2022-09-23T23:53:55.421Z,99.90
2022-09-23T23:56:24.262Z,99.90
2022-09-23T23:58:58.210Z,99.90
